Etusivu
METAR-TAF:

METAR-TAF

Lentoasemat :

Curaçao, Alankomaiden Antillit

Leveyspiiri: 12-12N, Pituuspiiri: 068-58W, korkeus merenpinnasta: 9 m

Tämänhetkinen sää

Tämä raportti tehtiin 52 minuuttia sitten, kello 17.00 UTC
Tuuli 12 kn idästä
Lämpötila 31°C
Kosteus 63%
Ilmanpaine 1012 hPa
Näkyvyys 10 km tai enemmän
Muutamia pilviä 2300 ft:n korkeudessa

METAR: TNCC 161700Z 09012KT 9999 FEW023 31/23 Q1012 NOSIG

Aika: 13:52 (17:52 UTC)

Sääennuste

Tämä raportti tehtiin 37 minuuttia sitten, kello 17.15 UTC
Ennuste voimassa 16. päivästä klo 18 UTC - 17. päivään klo 18 UTC
Tuuli 12 kn idästä/kaakosta
Näkyvyys 10 km tai enemmän
Muutamia pilviä 2200 ft:n korkeudessa
Todennäköisyys 30% :
Ajoittain
17. päivästä klo 08 UTC - 17. päivään klo 14 UTC
Näkyvyys: 7000 m
Hajonneita pilviä 1400 ft:n korkeudessa
heikkoja vesikuuroja

TAF: TNCC 161715Z 1618/1718 11012KT 9999 FEW022 PROB30 TEMPO 1708/1714 7000 -SHRA BKN014

Säähavainnot ja -ennusteet yli 4000 lentoasemalta (METAR- ja TAF-raportit).

Käytössä olevat sääasemat on merkitty karttaan keltaisilla ja punaisilla pisteillä.

Aseta hiiri pisteen päälle nähdäksesi sääaseman nimen.

Klikkaa sitten nähdäksesi säähavainnot ja -ennusteet.

Kartan vaihtaminen: klikkaa mustalla rastilla varustettuja vihreitä pisteitä, niin voit zoomata sisään; viivalla varustettua vihreää pistettä, niin voit zoomata ulos tai vihreitä nuolia, niin pääset viereisille kartoille.


METAR-TAF: